sensor_id;sensor_type;location;lat;lon;timestamp;P1;durP1;ratioP1;P2;durP2;ratioP2
11328;SDS011;5719;42.714;23.732;2023-02-28T00:02:26;37.60;;;21.13;;
11328;SDS011;5719;42.714;23.732;2023-02-28T00:04:53;33.33;;;20.13;;
11328;SDS011;5719;42.714;23.732;2023-02-28T00:07:26;30.83;;;19.20;;
11328;SDS011;5719;42.714;23.732;2023-02-28T00:09:53;29.52;;;18.88;;
11328;SDS011;5719;42.714;23.732;2023-02-28T00:12:20;29.92;;;19.63;;
11328;SDS011;5719;42.714;23.732;2023-02-28T00:14:47;29.70;;;18.35;;
11328;SDS011;5719;42.714;23.732;2023-02-28T00:17:14;36.08;;;20.52;;
11328;SDS011;5719;42.714;23.732;2023-02-28T00:19:42;35.90;;;20.40;;
11328;SDS011;5719;42.714;23.732;2023-02-28T00:22:09;31.02;;;18.88;;
11328;SDS011;5719;42.714;23.732;2023-02-28T00:24:36;40.10;;;20.27;;
11328;SDS011;5719;42.714;23.732;2023-02-28T00:27:03;37.30;;;20.45;;
11328;SDS011;5719;42.714;23.732;2023-02-28T00:29:30;30.63;;;19.30;;
11328;SDS011;5719;42.714;23.732;2023-02-28T00:31:57;31.77;;;18.80;;
11328;SDS011;5719;42.714;23.732;2023-02-28T00:34:24;30.60;;;18.05;;
11328;SDS011;5719;42.714;23.732;2023-02-28T00:36:52;30.05;;;18.35;;
11328;SDS011;5719;42.714;23.732;2023-02-28T00:39:20;32.42;;;19.33;;
11328;SDS011;5719;42.714;23.732;2023-02-28T00:41:47;32.17;;;18.58;;
11328;SDS011;5719;42.714;23.732;2023-02-28T00:44:14;36.67;;;19.90;;
11328;SDS011;5719;42.714;23.732;2023-02-28T00:46:40;31.95;;;19.42;;
11328;SDS011;5719;42.714;23.732;2023-02-28T00:49:07;40.22;;;20.02;;
11328;SDS011;5719;42.714;23.732;2023-02-28T00:51:34;34.05;;;19.75;;
11328;SDS011;5719;42.714;23.732;2023-02-28T00:54:02;34.53;;;19.98;;
11328;SDS011;5719;42.714;23.732;2023-02-28T00:56:29;34.03;;;19.95;;
11328;SDS011;5719;42.714;23.732;2023-02-28T00:58:56;34.78;;;20.00;;
11328;SDS011;5719;42.714;23.732;2023-02-28T01:01:23;32.50;;;19.20;;
11328;SDS011;5719;42.714;23.732;2023-02-28T01:03:50;28.40;;;16.75;;
11328;SDS011;5719;42.714;23.732;2023-02-28T01:06:16;26.05;;;16.67;;
11328;SDS011;5719;42.714;23.732;2023-02-28T01:08:43;27.13;;;16.83;;
11328;SDS011;5719;42.714;23.732;2023-02-28T01:11:12;30.00;;;17.38;;
11328;SDS011;5719;42.714;23.732;2023-02-28T01:13:41;30.70;;;16.85;;
11328;SDS011;5719;42.714;23.732;2023-02-28T01:16:08;28.17;;;17.98;;
11328;SDS011;5719;42.714;23.732;2023-02-28T01:18:35;26.25;;;16.02;;
11328;SDS011;5719;42.714;23.732;2023-02-28T01:21:03;25.85;;;16.08;;
11328;SDS011;5719;42.714;23.732;2023-02-28T01:23:30;27.60;;;16.40;;
11328;SDS011;5719;42.714;23.732;2023-02-28T01:25:58;30.48;;;17.90;;
11328;SDS011;5719;42.714;23.732;2023-02-28T01:28:31;28.98;;;18.25;;
11328;SDS011;5719;42.714;23.732;2023-02-28T01:30:58;34.83;;;18.50;;
11328;SDS011;5719;42.714;23.732;2023-02-28T01:33:25;31.63;;;18.52;;
11328;SDS011;5719;42.714;23.732;2023-02-28T01:35:57;31.30;;;18.10;;
11328;SDS011;5719;42.714;23.732;2023-02-28T01:38:25;27.42;;;16.83;;
11328;SDS011;5719;42.714;23.732;2023-02-28T01:40:51;28.90;;;17.67;;
11328;SDS011;5719;42.714;23.732;2023-02-28T01:43:20;28.45;;;16.95;;
11328;SDS011;5719;42.714;23.732;2023-02-28T01:45:50;30.02;;;17.05;;
11328;SDS011;5719;42.714;23.732;2023-02-28T01:48:17;24.48;;;15.30;;
11328;SDS011;5719;42.714;23.732;2023-02-28T01:50:47;30.67;;;15.98;;
11328;SDS011;5719;42.714;23.732;2023-02-28T01:53:15;25.33;;;14.60;;
11328;SDS011;5719;42.714;23.732;2023-02-28T01:55:45;25.65;;;15.60;;
11328;SDS011;5719;42.714;23.732;2023-02-28T01:58:15;25.95;;;15.35;;
11328;SDS011;5719;42.714;23.732;2023-02-28T02:00:42;20.13;;;13.05;;
11328;SDS011;5719;42.714;23.732;2023-02-28T02:03:12;21.10;;;12.18;;
11328;SDS011;5719;42.714;23.732;2023-02-28T02:05:44;20.63;;;11.77;;
11328;SDS011;5719;42.714;23.732;2023-02-28T02:08:13;26.77;;;13.10;;
11328;SDS011;5719;42.714;23.732;2023-02-28T02:10:44;20.50;;;12.73;;
11328;SDS011;5719;42.714;23.732;2023-02-28T02:13:19;18.30;;;11.90;;
11328;SDS011;5719;42.714;23.732;2023-02-28T02:16:04;17.95;;;10.75;;
11328;SDS011;5719;42.714;23.732;2023-02-28T02:18:45;28.92;;;15.63;;
11328;SDS011;5719;42.714;23.732;2023-02-28T02:21:26;25.52;;;14.88;;
11328;SDS011;5719;42.714;23.732;2023-02-28T02:27:26;22.77;;;12.70;;
11328;SDS011;5719;42.714;23.732;2023-02-28T02:30:08;21.45;;;12.35;;
11328;SDS011;5719;42.714;23.732;2023-02-28T02:32:56;24.85;;;12.30;;
11328;SDS011;5719;42.714;23.732;2023-02-28T02:35:35;21.38;;;11.65;;
11328;SDS011;5719;42.714;23.732;2023-02-28T02:38:09;19.45;;;10.32;;
11328;SDS011;5719;42.714;23.732;2023-02-28T02:40:46;20.00;;;10.48;;
11328;SDS011;5719;42.714;23.732;2023-02-28T02:43:22;14.52;;;9.55;;
11328;SDS011;5719;42.714;23.732;2023-02-28T02:45:55;21.02;;;11.13;;
11328;SDS011;5719;42.714;23.732;2023-02-28T02:48:26;17.98;;;10.88;;
11328;SDS011;5719;42.714;23.732;2023-02-28T02:50:58;18.20;;;10.98;;
11328;SDS011;5719;42.714;23.732;2023-02-28T02:53:28;29.83;;;14.55;;
11328;SDS011;5719;42.714;23.732;2023-02-28T02:56:01;21.92;;;10.98;;
11328;SDS011;5719;42.714;23.732;2023-02-28T02:58:32;22.33;;;11.85;;
11328;SDS011;5719;42.714;23.732;2023-02-28T03:01:07;20.77;;;11.98;;
11328;SDS011;5719;42.714;23.732;2023-02-28T03:03:36;23.42;;;11.85;;
11328;SDS011;5719;42.714;23.732;2023-02-28T03:06:05;21.45;;;11.63;;
11328;SDS011;5719;42.714;23.732;2023-02-28T03:08:34;24.10;;;12.88;;
11328;SDS011;5719;42.714;23.732;2023-02-28T03:11:03;22.58;;;13.10;;
11328;SDS011;5719;42.714;23.732;2023-02-28T03:13:39;23.60;;;12.43;;
11328;SDS011;5719;42.714;23.732;2023-02-28T03:19:14;22.58;;;12.75;;
11328;SDS011;5719;42.714;23.732;2023-02-28T03:21:55;30.67;;;13.82;;
11328;SDS011;5719;42.714;23.732;2023-02-28T03:24:32;25.85;;;12.80;;
11328;SDS011;5719;42.714;23.732;2023-02-28T03:27:05;24.27;;;12.02;;
11328;SDS011;5719;42.714;23.732;2023-02-28T03:29:36;24.00;;;12.02;;
11328;SDS011;5719;42.714;23.732;2023-02-28T03:32:08;20.88;;;11.15;;
11328;SDS011;5719;42.714;23.732;2023-02-28T03:34:47;19.02;;;10.50;;
11328;SDS011;5719;42.714;23.732;2023-02-28T03:39:51;36.88;;;16.10;;
11328;SDS011;5719;42.714;23.732;2023-02-28T03:44:52;37.22;;;16.33;;
11328;SDS011;5719;42.714;23.732;2023-02-28T03:47:24;35.08;;;14.65;;
11328;SDS011;5719;42.714;23.732;2023-02-28T03:49:55;36.83;;;16.23;;
11328;SDS011;5719;42.714;23.732;2023-02-28T03:52:27;34.72;;;15.43;;
11328;SDS011;5719;42.714;23.732;2023-02-28T03:55:00;32.97;;;15.90;;
11328;SDS011;5719;42.714;23.732;2023-02-28T03:57:33;36.07;;;15.10;;
11328;SDS011;5719;42.714;23.732;2023-02-28T04:00:06;32.53;;;14.98;;
11328;SDS011;5719;42.714;23.732;2023-02-28T04:02:37;34.20;;;15.18;;
11328;SDS011;5719;42.714;23.732;2023-02-28T04:05:05;27.73;;;14.55;;
11328;SDS011;5719;42.714;23.732;2023-02-28T04:07:33;29.85;;;14.75;;
11328;SDS011;5719;42.714;23.732;2023-02-28T04:10:00;31.50;;;15.27;;
11328;SDS011;5719;42.714;23.732;2023-02-28T04:12:27;34.33;;;15.35;;
11328;SDS011;5719;42.714;23.732;2023-02-28T04:14:54;31.33;;;14.48;;
11328;SDS011;5719;42.714;23.732;2023-02-28T04:17:21;25.20;;;12.65;;
11328;SDS011;5719;42.714;23.732;2023-02-28T04:19:48;22.85;;;9.85;;
11328;SDS011;5719;42.714;23.732;2023-02-28T04:22:15;14.75;;;7.38;;
11328;SDS011;5719;42.714;23.732;2023-02-28T04:24:44;15.18;;;7.25;;
11328;SDS011;5719;42.714;23.732;2023-02-28T04:27:11;22.48;;;11.00;;
11328;SDS011;5719;42.714;23.732;2023-02-28T04:29:38;24.17;;;12.13;;
11328;SDS011;5719;42.714;23.732;2023-02-28T04:32:05;19.20;;;11.23;;
11328;SDS011;5719;42.714;23.732;2023-02-28T04:34:32;23.27;;;12.57;;
11328;SDS011;5719;42.714;23.732;2023-02-28T04:36:59;22.38;;;10.75;;
11328;SDS011;5719;42.714;23.732;2023-02-28T04:39:26;12.40;;;5.78;;
11328;SDS011;5719;42.714;23.732;2023-02-28T04:41:54;12.93;;;7.00;;
11328;SDS011;5719;42.714;23.732;2023-02-28T04:44:22;13.55;;;6.80;;
11328;SDS011;5719;42.714;23.732;2023-02-28T04:46:49;12.65;;;6.30;;
11328;SDS011;5719;42.714;23.732;2023-02-28T04:49:16;12.65;;;6.18;;
11328;SDS011;5719;42.714;23.732;2023-02-28T04:51:43;26.90;;;12.25;;
11328;SDS011;5719;42.714;23.732;2023-02-28T04:54:10;23.25;;;12.00;;
11328;SDS011;5719;42.714;23.732;2023-02-28T04:56:38;28.85;;;12.57;;
11328;SDS011;5719;42.714;23.732;2023-02-28T04:59:07;20.80;;;9.63;;
11328;SDS011;5719;42.714;23.732;2023-02-28T05:01:34;16.10;;;8.77;;
11328;SDS011;5719;42.714;23.732;2023-02-28T05:04:02;19.40;;;9.55;;
11328;SDS011;5719;42.714;23.732;2023-02-28T05:06:30;41.80;;;18.85;;
11328;SDS011;5719;42.714;23.732;2023-02-28T05:08:59;26.05;;;12.15;;
11328;SDS011;5719;42.714;23.732;2023-02-28T05:11:27;20.75;;;11.20;;
11328;SDS011;5719;42.714;23.732;2023-02-28T05:13:59;21.65;;;9.60;;
11328;SDS011;5719;42.714;23.732;2023-02-28T05:16:28;20.95;;;10.57;;
11328;SDS011;5719;42.714;23.732;2023-02-28T05:18:56;20.52;;;10.30;;
11328;SDS011;5719;42.714;23.732;2023-02-28T05:21:24;22.70;;;9.65;;
11328;SDS011;5719;42.714;23.732;2023-02-28T05:23:54;23.42;;;11.10;;
11328;SDS011;5719;42.714;23.732;2023-02-28T05:26:22;24.13;;;9.68;;
11328;SDS011;5719;42.714;23.732;2023-02-28T05:28:49;16.00;;;9.27;;
11328;SDS011;5719;42.714;23.732;2023-02-28T05:31:16;16.70;;;8.88;;
11328;SDS011;5719;42.714;23.732;2023-02-28T05:33:45;17.88;;;9.00;;
11328;SDS011;5719;42.714;23.732;2023-02-28T05:36:12;17.02;;;7.93;;
11328;SDS011;5719;42.714;23.732;2023-02-28T05:38:38;14.90;;;7.38;;
11328;SDS011;5719;42.714;23.732;2023-02-28T05:41:06;23.33;;;8.75;;
11328;SDS011;5719;42.714;23.732;2023-02-28T05:43:33;20.52;;;7.82;;
11328;SDS011;5719;42.714;23.732;2023-02-28T05:46:02;14.48;;;8.55;;
11328;SDS011;5719;42.714;23.732;2023-02-28T05:48:30;20.50;;;9.60;;
11328;SDS011;5719;42.714;23.732;2023-02-28T05:50:59;15.50;;;8.65;;
11328;SDS011;5719;42.714;23.732;2023-02-28T05:53:26;21.92;;;9.55;;
11328;SDS011;5719;42.714;23.732;2023-02-28T05:55:53;21.15;;;9.75;;
11328;SDS011;5719;42.714;23.732;2023-02-28T05:58:20;16.65;;;9.10;;
11328;SDS011;5719;42.714;23.732;2023-02-28T06:00:48;20.40;;;12.23;;
11328;SDS011;5719;42.714;23.732;2023-02-28T06:03:15;21.00;;;11.23;;
11328;SDS011;5719;42.714;23.732;2023-02-28T06:05:41;17.02;;;10.45;;
11328;SDS011;5719;42.714;23.732;2023-02-28T06:08:10;20.23;;;10.25;;
11328;SDS011;5719;42.714;23.732;2023-02-28T06:10:37;19.48;;;10.55;;
11328;SDS011;5719;42.714;23.732;2023-02-28T06:13:04;22.83;;;11.95;;
11328;SDS011;5719;42.714;23.732;2023-02-28T06:15:31;19.05;;;11.88;;
11328;SDS011;5719;42.714;23.732;2023-02-28T06:17:59;25.83;;;15.07;;
11328;SDS011;5719;42.714;23.732;2023-02-28T06:20:26;22.33;;;10.77;;
11328;SDS011;5719;42.714;23.732;2023-02-28T06:22:54;21.55;;;11.43;;
11328;SDS011;5719;42.714;23.732;2023-02-28T06:25:25;30.25;;;14.75;;
11328;SDS011;5719;42.714;23.732;2023-02-28T06:27:52;34.03;;;17.20;;
11328;SDS011;5719;42.714;23.732;2023-02-28T06:30:19;33.78;;;16.13;;
11328;SDS011;5719;42.714;23.732;2023-02-28T06:32:49;29.55;;;16.00;;
11328;SDS011;5719;42.714;23.732;2023-02-28T06:35:17;43.63;;;19.52;;
11328;SDS011;5719;42.714;23.732;2023-02-28T06:37:43;48.88;;;22.08;;
11328;SDS011;5719;42.714;23.732;2023-02-28T06:40:12;47.42;;;22.33;;
11328;SDS011;5719;42.714;23.732;2023-02-28T06:42:41;46.13;;;18.63;;
11328;SDS011;5719;42.714;23.732;2023-02-28T06:45:08;39.88;;;19.17;;
11328;SDS011;5719;42.714;23.732;2023-02-28T06:47:36;34.35;;;18.45;;
11328;SDS011;5719;42.714;23.732;2023-02-28T06:50:03;46.05;;;21.70;;
11328;SDS011;5719;42.714;23.732;2023-02-28T06:52:30;47.53;;;22.50;;
11328;SDS011;5719;42.714;23.732;2023-02-28T06:54:57;49.03;;;23.63;;
11328;SDS011;5719;42.714;23.732;2023-02-28T06:57:27;47.45;;;22.30;;
11328;SDS011;5719;42.714;23.732;2023-02-28T06:59:57;67.15;;;26.60;;
11328;SDS011;5719;42.714;23.732;2023-02-28T07:02:24;48.83;;;23.08;;
11328;SDS011;5719;42.714;23.732;2023-02-28T07:04:51;64.05;;;25.27;;
11328;SDS011;5719;42.714;23.732;2023-02-28T07:07:18;49.85;;;22.98;;
11328;SDS011;5719;42.714;23.732;2023-02-28T07:09:45;47.42;;;21.48;;
11328;SDS011;5719;42.714;23.732;2023-02-28T07:12:12;38.47;;;20.23;;
11328;SDS011;5719;42.714;23.732;2023-02-28T07:14:39;43.40;;;21.08;;
11328;SDS011;5719;42.714;23.732;2023-02-28T07:17:08;40.60;;;19.83;;
11328;SDS011;5719;42.714;23.732;2023-02-28T07:19:37;42.42;;;19.63;;
11328;SDS011;5719;42.714;23.732;2023-02-28T07:34:47;38.28;;;21.05;;
11328;SDS011;5719;42.714;23.732;2023-02-28T07:37:15;34.50;;;20.58;;
11328;SDS011;5719;42.714;23.732;2023-02-28T07:39:41;48.58;;;20.98;;
11328;SDS011;5719;42.714;23.732;2023-02-28T07:42:08;48.45;;;20.40;;
11328;SDS011;5719;42.714;23.732;2023-02-28T07:44:37;49.15;;;21.20;;
11328;SDS011;5719;42.714;23.732;2023-02-28T07:47:06;42.20;;;20.83;;
11328;SDS011;5719;42.714;23.732;2023-02-28T07:49:34;34.08;;;20.88;;
11328;SDS011;5719;42.714;23.732;2023-02-28T07:52:03;38.33;;;20.73;;
11328;SDS011;5719;42.714;23.732;2023-02-28T07:54:30;34.63;;;19.40;;
11328;SDS011;5719;42.714;23.732;2023-02-28T07:56:58;38.00;;;19.50;;
11328;SDS011;5719;42.714;23.732;2023-02-28T07:59:25;39.58;;;18.70;;
11328;SDS011;5719;42.714;23.732;2023-02-28T08:01:52;37.80;;;19.02;;
11328;SDS011;5719;42.714;23.732;2023-02-28T08:04:18;30.42;;;16.77;;
11328;SDS011;5719;42.714;23.732;2023-02-28T08:06:45;30.15;;;16.90;;
11328;SDS011;5719;42.714;23.732;2023-02-28T08:09:14;30.70;;;16.33;;
11328;SDS011;5719;42.714;23.732;2023-02-28T08:11:41;32.97;;;16.25;;
11328;SDS011;5719;42.714;23.732;2023-02-28T08:14:07;28.08;;;14.95;;
11328;SDS011;5719;42.714;23.732;2023-02-28T08:16:34;34.20;;;16.63;;
11328;SDS011;5719;42.714;23.732;2023-02-28T08:19:02;29.05;;;16.25;;
11328;SDS011;5719;42.714;23.732;2023-02-28T08:21:29;33.10;;;15.55;;
11328;SDS011;5719;42.714;23.732;2023-02-28T08:23:56;31.27;;;15.32;;
11328;SDS011;5719;42.714;23.732;2023-02-28T08:26:24;34.47;;;16.98;;
11328;SDS011;5719;42.714;23.732;2023-02-28T08:28:51;30.42;;;15.80;;
11328;SDS011;5719;42.714;23.732;2023-02-28T08:31:18;29.42;;;16.33;;
11328;SDS011;5719;42.714;23.732;2023-02-28T08:33:45;32.08;;;15.48;;
11328;SDS011;5719;42.714;23.732;2023-02-28T08:36:13;25.88;;;14.30;;
11328;SDS011;5719;42.714;23.732;2023-02-28T08:38:40;28.20;;;14.68;;
11328;SDS011;5719;42.714;23.732;2023-02-28T08:41:08;28.15;;;15.10;;
11328;SDS011;5719;42.714;23.732;2023-02-28T08:43:39;23.90;;;14.27;;
11328;SDS011;5719;42.714;23.732;2023-02-28T08:46:06;21.20;;;12.60;;
11328;SDS011;5719;42.714;23.732;2023-02-28T08:48:35;24.63;;;13.90;;
11328;SDS011;5719;42.714;23.732;2023-02-28T08:51:04;21.42;;;13.18;;
11328;SDS011;5719;42.714;23.732;2023-02-28T08:53:34;20.77;;;11.57;;
11328;SDS011;5719;42.714;23.732;2023-02-28T08:56:02;22.13;;;11.20;;
11328;SDS011;5719;42.714;23.732;2023-02-28T08:58:30;17.10;;;10.98;;
11328;SDS011;5719;42.714;23.732;2023-02-28T09:00:59;15.50;;;9.60;;
11328;SDS011;5719;42.714;23.732;2023-02-28T09:03:26;16.73;;;9.50;;
11328;SDS011;5719;42.714;23.732;2023-02-28T09:05:56;15.57;;;9.20;;
11328;SDS011;5719;42.714;23.732;2023-02-28T09:08:25;13.50;;;8.70;;
11328;SDS011;5719;42.714;23.732;2023-02-28T09:10:53;12.05;;;7.60;;
11328;SDS011;5719;42.714;23.732;2023-02-28T09:13:22;14.00;;;7.57;;
11328;SDS011;5719;42.714;23.732;2023-02-28T09:15:49;11.90;;;7.43;;
11328;SDS011;5719;42.714;23.732;2023-02-28T09:18:17;14.05;;;7.28;;
11328;SDS011;5719;42.714;23.732;2023-02-28T09:20:44;14.65;;;7.50;;
11328;SDS011;5719;42.714;23.732;2023-02-28T09:23:11;16.73;;;7.85;;
11328;SDS011;5719;42.714;23.732;2023-02-28T09:25:44;17.05;;;7.72;;
11328;SDS011;5719;42.714;23.732;2023-02-28T09:28:12;12.38;;;7.45;;
11328;SDS011;5719;42.714;23.732;2023-02-28T09:30:40;13.02;;;8.15;;
11328;SDS011;5719;42.714;23.732;2023-02-28T09:33:07;16.73;;;7.78;;
11328;SDS011;5719;42.714;23.732;2023-02-28T09:35:36;11.48;;;7.78;;
11328;SDS011;5719;42.714;23.732;2023-02-28T09:38:03;11.98;;;7.25;;
11328;SDS011;5719;42.714;23.732;2023-02-28T09:40:34;16.88;;;7.90;;
11328;SDS011;5719;42.714;23.732;2023-02-28T09:43:03;13.77;;;8.38;;
11328;SDS011;5719;42.714;23.732;2023-02-28T09:45:32;19.55;;;7.68;;
11328;SDS011;5719;42.714;23.732;2023-02-28T09:48:02;11.77;;;7.47;;
11328;SDS011;5719;42.714;23.732;2023-02-28T09:50:33;15.82;;;8.10;;
11328;SDS011;5719;42.714;23.732;2023-02-28T09:53:09;12.75;;;7.85;;
11328;SDS011;5719;42.714;23.732;2023-02-28T09:55:42;15.13;;;8.07;;
11328;SDS011;5719;42.714;23.732;2023-02-28T09:58:15;11.32;;;7.25;;
11328;SDS011;5719;42.714;23.732;2023-02-28T10:00:52;13.57;;;7.82;;
11328;SDS011;5719;42.714;23.732;2023-02-28T10:03:27;11.85;;;8.15;;
11328;SDS011;5719;42.714;23.732;2023-02-28T10:06:01;11.63;;;7.65;;
11328;SDS011;5719;42.714;23.732;2023-02-28T10:08:36;17.15;;;7.88;;
11328;SDS011;5719;42.714;23.732;2023-02-28T10:11:11;10.77;;;7.50;;
11328;SDS011;5719;42.714;23.732;2023-02-28T10:13:46;14.10;;;7.72;;
11328;SDS011;5719;42.714;23.732;2023-02-28T10:16:20;16.52;;;7.60;;
11328;SDS011;5719;42.714;23.732;2023-02-28T10:18:56;14.52;;;7.40;;
11328;SDS011;5719;42.714;23.732;2023-02-28T10:21:30;9.93;;;7.25;;
11328;SDS011;5719;42.714;23.732;2023-02-28T10:24:05;10.43;;;7.80;;
11328;SDS011;5719;42.714;23.732;2023-02-28T10:26:45;12.60;;;7.78;;
11328;SDS011;5719;42.714;23.732;2023-02-28T10:29:13;14.68;;;7.75;;
11328;SDS011;5719;42.714;23.732;2023-02-28T10:31:40;13.68;;;7.63;;
11328;SDS011;5719;42.714;23.732;2023-02-28T10:34:07;16.40;;;7.47;;
11328;SDS011;5719;42.714;23.732;2023-02-28T10:36:40;18.80;;;8.68;;
11328;SDS011;5719;42.714;23.732;2023-02-28T10:42:01;16.85;;;8.88;;
11328;SDS011;5719;42.714;23.732;2023-02-28T10:44:28;17.02;;;8.93;;
11328;SDS011;5719;42.714;23.732;2023-02-28T10:46:55;13.68;;;7.90;;
11328;SDS011;5719;42.714;23.732;2023-02-28T10:49:23;14.65;;;8.57;;
11328;SDS011;5719;42.714;23.732;2023-02-28T10:51:54;15.45;;;8.10;;
11328;SDS011;5719;42.714;23.732;2023-02-28T10:54:24;13.48;;;8.27;;
11328;SDS011;5719;42.714;23.732;2023-02-28T10:57:05;16.33;;;9.30;;
11328;SDS011;5719;42.714;23.732;2023-02-28T10:59:34;17.55;;;8.52;;
11328;SDS011;5719;42.714;23.732;2023-02-28T11:02:01;14.05;;;8.52;;
11328;SDS011;5719;42.714;23.732;2023-02-28T11:04:33;18.60;;;8.38;;
11328;SDS011;5719;42.714;23.732;2023-02-28T11:07:06;21.77;;;8.10;;
11328;SDS011;5719;42.714;23.732;2023-02-28T11:09:45;20.77;;;8.30;;
11328;SDS011;5719;42.714;23.732;2023-02-28T11:12:20;17.05;;;8.20;;
11328;SDS011;5719;42.714;23.732;2023-02-28T11:14:49;15.00;;;8.15;;
11328;SDS011;5719;42.714;23.732;2023-02-28T11:17:19;22.77;;;9.05;;
11328;SDS011;5719;42.714;23.732;2023-02-28T11:19:49;13.95;;;7.97;;
11328;SDS011;5719;42.714;23.732;2023-02-28T11:22:22;15.52;;;7.68;;
11328;SDS011;5719;42.714;23.732;2023-02-28T11:24:54;12.43;;;7.57;;
11328;SDS011;5719;42.714;23.732;2023-02-28T11:32:59;14.00;;;8.27;;
11328;SDS011;5719;42.714;23.732;2023-02-28T11:35:28;17.02;;;7.95;;
11328;SDS011;5719;42.714;23.732;2023-02-28T11:38:01;13.18;;;7.90;;
11328;SDS011;5719;42.714;23.732;2023-02-28T11:40:30;23.92;;;8.40;;
11328;SDS011;5719;42.714;23.732;2023-02-28T11:43:08;17.83;;;7.75;;
11328;SDS011;5719;42.714;23.732;2023-02-28T11:45:53;18.25;;;7.90;;
11328;SDS011;5719;42.714;23.732;2023-02-28T11:48:32;17.33;;;8.27;;
11328;SDS011;5719;42.714;23.732;2023-02-28T11:51:06;24.10;;;8.68;;
11328;SDS011;5719;42.714;23.732;2023-02-28T11:53:50;15.38;;;8.48;;
11328;SDS011;5719;42.714;23.732;2023-02-28T11:56:29;18.42;;;8.55;;
11328;SDS011;5719;42.714;23.732;2023-02-28T11:59:07;21.98;;;9.27;;
11328;SDS011;5719;42.714;23.732;2023-02-28T12:01:59;19.67;;;8.63;;
11328;SDS011;5719;42.714;23.732;2023-02-28T12:04:48;18.90;;;8.50;;
11328;SDS011;5719;42.714;23.732;2023-02-28T12:07:35;14.25;;;8.48;;
11328;SDS011;5719;42.714;23.732;2023-02-28T12:10:13;19.95;;;7.95;;
11328;SDS011;5719;42.714;23.732;2023-02-28T12:12:49;22.52;;;8.15;;
11328;SDS011;5719;42.714;23.732;2023-02-28T12:15:34;21.77;;;7.55;;
11328;SDS011;5719;42.714;23.732;2023-02-28T12:18:17;16.05;;;7.47;;
11328;SDS011;5719;42.714;23.732;2023-02-28T12:21:01;14.57;;;7.85;;
11328;SDS011;5719;42.714;23.732;2023-02-28T12:23:49;14.85;;;7.40;;
11328;SDS011;5719;42.714;23.732;2023-02-28T12:26:36;16.10;;;7.80;;
11328;SDS011;5719;42.714;23.732;2023-02-28T12:29:10;18.48;;;6.70;;
11328;SDS011;5719;42.714;23.732;2023-02-28T12:31:45;24.80;;;8.15;;
11328;SDS011;5719;42.714;23.732;2023-02-28T12:34:16;22.10;;;9.20;;
11328;SDS011;5719;42.714;23.732;2023-02-28T12:36:47;15.88;;;8.48;;
11328;SDS011;5719;42.714;23.732;2023-02-28T12:39:18;16.52;;;7.47;;
11328;SDS011;5719;42.714;23.732;2023-02-28T12:41:51;12.95;;;6.60;;
11328;SDS011;5719;42.714;23.732;2023-02-28T12:44:21;9.93;;;6.85;;
11328;SDS011;5719;42.714;23.732;2023-02-28T12:46:55;14.60;;;6.93;;
11328;SDS011;5719;42.714;23.732;2023-02-28T12:49:27;16.70;;;6.97;;
11328;SDS011;5719;42.714;23.732;2023-02-28T12:51:57;16.27;;;7.72;;
11328;SDS011;5719;42.714;23.732;2023-02-28T12:54:28;12.98;;;6.30;;
11328;SDS011;5719;42.714;23.732;2023-02-28T12:57:05;13.50;;;6.18;;
11328;SDS011;5719;42.714;23.732;2023-02-28T12:59:37;12.55;;;6.10;;
11328;SDS011;5719;42.714;23.732;2023-02-28T13:02:21;12.63;;;5.88;;
11328;SDS011;5719;42.714;23.732;2023-02-28T13:05:24;15.25;;;7.20;;
11328;SDS011;5719;42.714;23.732;2023-02-28T13:08:10;19.33;;;7.43;;
11328;SDS011;5719;42.714;23.732;2023-02-28T13:10:53;16.25;;;5.88;;
11328;SDS011;5719;42.714;23.732;2023-02-28T13:13:22;11.27;;;6.20;;
11328;SDS011;5719;42.714;23.732;2023-02-28T13:15:58;20.23;;;6.95;;
11328;SDS011;5719;42.714;23.732;2023-02-28T13:18:28;11.25;;;5.75;;
11328;SDS011;5719;42.714;23.732;2023-02-28T13:20:57;8.82;;;4.97;;
11328;SDS011;5719;42.714;23.732;2023-02-28T13:23:57;7.63;;;4.57;;
11328;SDS011;5719;42.714;23.732;2023-02-28T13:29:35;4.75;;;3.63;;
11328;SDS011;5719;42.714;23.732;2023-02-28T13:38:16;4.13;;;3.30;;
11328;SDS011;5719;42.714;23.732;2023-02-28T13:43:59;9.80;;;3.47;;
11328;SDS011;5719;42.714;23.732;2023-02-28T13:46:29;5.07;;;3.30;;
11328;SDS011;5719;42.714;23.732;2023-02-28T13:51:46;4.75;;;3.20;;
11328;SDS011;5719;42.714;23.732;2023-02-28T13:54:17;5.85;;;3.00;;
11328;SDS011;5719;42.714;23.732;2023-02-28T13:57:00;2.72;;;2.47;;
11328;SDS011;5719;42.714;23.732;2023-02-28T13:59:39;2.70;;;2.45;;
11328;SDS011;5719;42.714;23.732;2023-02-28T14:02:25;4.20;;;2.30;;
11328;SDS011;5719;42.714;23.732;2023-02-28T14:05:02;8.95;;;2.80;;
11328;SDS011;5719;42.714;23.732;2023-02-28T14:07:41;5.15;;;2.50;;
11328;SDS011;5719;42.714;23.732;2023-02-28T14:10:19;3.75;;;2.40;;
11328;SDS011;5719;42.714;23.732;2023-02-28T14:12:57;5.63;;;2.25;;
11328;SDS011;5719;42.714;23.732;2023-02-28T14:15:40;7.65;;;3.13;;
11328;SDS011;5719;42.714;23.732;2023-02-28T14:18:24;6.32;;;2.58;;
11328;SDS011;5719;42.714;23.732;2023-02-28T14:20:55;7.07;;;3.08;;
11328;SDS011;5719;42.714;23.732;2023-02-28T14:23:32;6.75;;;2.53;;
11328;SDS011;5719;42.714;23.732;2023-02-28T14:26:10;10.35;;;2.80;;
11328;SDS011;5719;42.714;23.732;2023-02-28T14:28:51;8.65;;;3.53;;
11328;SDS011;5719;42.714;23.732;2023-02-28T14:31:36;5.78;;;2.72;;
11328;SDS011;5719;42.714;23.732;2023-02-28T14:34:20;5.10;;;3.08;;
11328;SDS011;5719;42.714;23.732;2023-02-28T14:36:58;6.00;;;2.95;;
11328;SDS011;5719;42.714;23.732;2023-02-28T14:39:29;5.68;;;2.70;;
11328;SDS011;5719;42.714;23.732;2023-02-28T14:41:57;5.53;;;2.40;;
11328;SDS011;5719;42.714;23.732;2023-02-28T14:44:28;5.88;;;2.22;;
11328;SDS011;5719;42.714;23.732;2023-02-28T14:46:56;5.35;;;2.70;;
11328;SDS011;5719;42.714;23.732;2023-02-28T14:49:30;4.13;;;2.97;;
11328;SDS011;5719;42.714;23.732;2023-02-28T14:52:05;4.32;;;2.35;;
11328;SDS011;5719;42.714;23.732;2023-02-28T14:54:36;5.80;;;2.45;;
11328;SDS011;5719;42.714;23.732;2023-02-28T14:57:04;4.82;;;2.60;;
11328;SDS011;5719;42.714;23.732;2023-02-28T14:59:31;8.60;;;2.45;;
11328;SDS011;5719;42.714;23.732;2023-02-28T15:02:16;2.97;;;2.15;;
11328;SDS011;5719;42.714;23.732;2023-02-28T15:04:53;3.30;;;2.58;;
11328;SDS011;5719;42.714;23.732;2023-02-28T15:07:21;5.38;;;2.63;;
11328;SDS011;5719;42.714;23.732;2023-02-28T15:10:06;4.78;;;2.60;;
11328;SDS011;5719;42.714;23.732;2023-02-28T15:12:39;9.45;;;3.17;;
11328;SDS011;5719;42.714;23.732;2023-02-28T15:15:14;3.95;;;2.75;;
11328;SDS011;5719;42.714;23.732;2023-02-28T15:17:42;9.10;;;2.50;;
11328;SDS011;5719;42.714;23.732;2023-02-28T15:20:13;4.50;;;2.30;;
11328;SDS011;5719;42.714;23.732;2023-02-28T15:22:43;2.40;;;2.20;;
11328;SDS011;5719;42.714;23.732;2023-02-28T15:25:13;2.75;;;2.20;;
11328;SDS011;5719;42.714;23.732;2023-02-28T15:27:44;3.42;;;1.70;;
11328;SDS011;5719;42.714;23.732;2023-02-28T15:30:15;3.53;;;2.00;;
11328;SDS011;5719;42.714;23.732;2023-02-28T15:32:44;3.25;;;2.08;;
11328;SDS011;5719;42.714;23.732;2023-02-28T15:35:29;3.88;;;2.47;;
11328;SDS011;5719;42.714;23.732;2023-02-28T15:38:00;5.20;;;2.08;;
11328;SDS011;5719;42.714;23.732;2023-02-28T15:40:29;2.83;;;2.10;;
11328;SDS011;5719;42.714;23.732;2023-02-28T15:42:58;2.53;;;2.13;;